Time;durP1;ratioP1;P1;durP2;ratioP2;P2;SDS_P1;SDS_P2;PMS_P1;PMS_P2;Temp;Humidity;BMP_temperature;BMP_pressure;BME280_temperature;BME280_humidity;BME280_pressure;Samples;Min_cycle;Max_cycle;Signal;HPM_P1;HPM_P2
2023/05/07 00:02:07;;;;;;;8.70;4.25;;;12.40;99.90;;;;;;5131661;27;20043;-49
2023/05/07 00:04:37;;;;;;;10.43;3.97;;;12.40;99.90;;;;;;5131385;27;20429;-47
2023/05/07 00:07:04;;;;;;;6.07;3.53;;;12.40;99.90;;;;;;5132296;27;20103;-46
2023/05/07 00:09:31;;;;;;;9.00;5.07;;;12.30;99.90;;;;;;5131981;27;20042;-47
2023/05/07 00:11:57;;;;;;;9.75;4.15;;;12.20;99.90;;;;;;5143970;27;20038;-46
2023/05/07 00:14:24;;;;;;;7.15;4.63;;;12.20;99.90;;;;;;5133743;27;20103;-47
2023/05/07 00:16:51;;;;;;;14.95;5.78;;;12.20;99.90;;;;;;5132086;27;20464;-46
2023/05/07 00:19:17;;;;;;;10.32;5.78;;;12.20;99.90;;;;;;5133190;27;20998;-47
2023/05/07 00:21:44;;;;;;;11.40;5.45;;;12.20;99.90;;;;;;5138440;27;20080;-46
2023/05/07 00:24:11;;;;;;;11.52;4.88;;;12.20;99.90;;;;;;5130780;27;20188;-46
2023/05/07 00:26:38;;;;;;;13.18;5.57;;;12.20;99.90;;;;;;5131646;27;20031;-46
2023/05/07 00:29:05;;;;;;;11.30;5.82;;;12.20;99.90;;;;;;5130847;27;20039;-46
2023/05/07 00:31:31;;;;;;;12.00;5.18;;;12.10;99.90;;;;;;5125418;27;20050;-48
2023/05/07 00:33:58;;;;;;;10.68;5.15;;;12.10;99.90;;;;;;5127429;27;20039;-46
2023/05/07 00:36:26;;;;;;;9.55;5.15;;;12.20;99.90;;;;;;5121986;28;20043;-46
2023/05/07 00:38:55;;;;;;;7.03;5.15;;;12.10;99.90;;;;;;5113154;28;20071;-47
2023/05/07 00:41:22;;;;;;;7.30;4.72;;;12.10;99.90;;;;;;5132110;27;20042;-47
2023/05/07 00:43:51;;;;;;;7.93;5.00;;;12.10;99.90;;;;;;5145855;27;20047;-47
2023/05/07 00:46:21;;;;;;;9.57;4.53;;;12.10;99.90;;;;;;5136762;27;20043;-48
2023/05/07 00:48:48;;;;;;;6.40;5.20;;;12.10;99.90;;;;;;5119961;27;20049;-46
2023/05/07 00:51:15;;;;;;;9.48;5.38;;;12.10;99.90;;;;;;5133768;27;20088;-46
2023/05/07 00:53:42;;;;;;;5.75;4.22;;;12.00;99.90;;;;;;5141537;27;20491;-47
2023/05/07 00:56:09;;;;;;;9.60;4.13;;;12.00;99.90;;;;;;5125301;27;20031;-46
2023/05/07 00:58:36;;;;;;;;;;;12.00;99.90;;;;;;5146289;27;20050;-46
2023/05/07 01:01:03;;;;;;;9.00;4.18;;;11.90;99.90;;;;;;5130534;27;19919;-47
2023/05/07 01:03:30;;;;;;;5.97;4.25;;;11.90;99.90;;;;;;5131342;27;20474;-46
2023/05/07 01:05:58;;;;;;;5.13;3.97;;;11.80;99.90;;;;;;5134425;27;20471;-48
2023/05/07 01:08:29;;;;;;;7.53;4.05;;;11.80;99.90;;;;;;5123348;27;20138;-47
2023/05/07 01:10:57;;;;;;;8.10;3.80;;;11.80;99.90;;;;;;5135918;27;20047;-47
2023/05/07 01:13:24;;;;;;;6.55;3.65;;;11.80;99.90;;;;;;5153739;27;20066;-46
2023/05/07 01:15:52;;;;;;;8.23;3.22;;;11.70;99.90;;;;;;5120216;27;20445;-47
2023/05/07 01:18:18;;;;;;;5.75;3.45;;;11.70;99.90;;;;;;5148103;27;20043;-47
2023/05/07 01:20:45;;;;;;;5.47;3.50;;;11.80;99.90;;;;;;5132158;27;20058;-47
2023/05/07 01:23:13;;;;;;;6.90;3.90;;;11.60;99.90;;;;;;5130697;27;20556;-46
2023/05/07 01:25:39;;;;;;;9.40;4.03;;;11.50;99.90;;;;;;5136096;27;20051;-46
2023/05/07 01:28:07;;;;;;;5.75;3.78;;;11.50;99.90;;;;;;5136742;27;20070;-47
2023/05/07 01:30:41;;;;;;;4.95;3.15;;;11.50;99.90;;;;;;5129919;27;20054;-46
2023/05/07 01:33:15;;;;;;;5.10;3.58;;;11.50;99.90;;;;;;5135783;27;20044;-47
2023/05/07 01:35:45;;;;;;;7.20;3.65;;;11.50;99.90;;;;;;5119713;27;20043;-51
2023/05/07 01:38:13;;;;;;;3.53;3.22;;;11.60;99.90;;;;;;5126425;27;20046;-46
2023/05/07 01:40:40;;;;;;;;;;;11.60;99.90;;;;;;5136985;27;20490;-46
2023/05/07 01:43:07;;;;;;;5.25;3.60;;;11.60;99.90;;;;;;5116093;27;20364;-50
2023/05/07 01:45:36;;;;;;;5.60;3.58;;;11.50;99.90;;;;;;5118151;27;20069;-46
2023/05/07 01:48:03;;;;;;;;;;;11.50;99.90;;;;;;5147352;27;20050;-46
2023/05/07 01:50:31;;;;;;;5.40;3.60;;;11.50;99.90;;;;;;5128834;27;19919;-46
2023/05/07 01:52:58;;;;;;;8.43;3.55;;;11.50;99.90;;;;;;5134489;27;20419;-47
2023/05/07 01:55:24;;;;;;;4.95;3.78;;;11.50;99.90;;;;;;5115541;27;20043;-49
2023/05/07 01:57:51;;;;;;;5.45;3.58;;;11.50;99.90;;;;;;5116540;27;20431;-49
2023/05/07 02:00:18;;;;;;;5.13;3.53;;;11.50;99.90;;;;;;5124388;27;20521;-46
2023/05/07 02:02:45;;;;;;;4.22;3.63;;;11.40;99.90;;;;;;5140671;27;20039;-46
2023/05/07 02:05:24;;;;;;;5.43;3.63;;;11.40;99.90;;;;;;5127340;27;20039;-47
2023/05/07 02:07:58;;;;;;;6.53;3.50;;;11.40;99.90;;;;;;5148341;27;20039;-47
2023/05/07 02:10:27;;;;;;;5.43;3.45;;;11.50;99.90;;;;;;5119420;27;20049;-46
2023/05/07 02:12:53;;;;;;;4.50;3.55;;;11.40;99.90;;;;;;5131906;27;20050;-46
2023/05/07 02:15:20;;;;;;;9.68;3.58;;;11.50;99.90;;;;;;5131662;27;20075;-46
2023/05/07 02:18:08;;;;;;;7.35;3.58;;;11.50;99.90;;;;;;5115169;27;20066;-47
2023/05/07 02:20:35;;;;;;;4.57;3.60;;;11.50;99.90;;;;;;5134946;27;20046;-46
2023/05/07 02:23:02;;;;;;;5.20;3.63;;;11.50;99.90;;;;;;5135954;27;20031;-46
2023/05/07 02:25:30;;;;;;;7.70;4.07;;;11.50;99.90;;;;;;5134395;27;20506;-46
2023/05/07 02:27:57;;;;;;;6.32;3.65;;;11.40;99.90;;;;;;5125462;27;20148;-48
2023/05/07 02:30:37;;;;;;;7.57;4.10;;;11.40;99.90;;;;;;5122003;27;20066;-46
2023/05/07 02:33:03;;;;;;;6.22;3.83;;;11.30;99.90;;;;;;5116678;27;20084;-48
2023/05/07 02:35:31;;;;;;;11.55;4.05;;;11.40;99.90;;;;;;5128367;27;20108;-47
2023/05/07 02:37:57;;;;;;;9.57;4.35;;;11.30;99.90;;;;;;5133557;27;20112;-46
2023/05/07 02:40:25;;;;;;;10.57;3.50;;;11.30;99.90;;;;;;5128923;27;20047;-47
2023/05/07 02:42:51;;;;;;;5.40;3.40;;;11.30;99.90;;;;;;5131985;27;20035;-46
2023/05/07 02:45:18;;;;;;;6.25;3.40;;;11.30;99.90;;;;;;5129436;27;20084;-47
2023/05/07 02:47:46;;;;;;;4.35;3.42;;;11.30;99.90;;;;;;5131148;27;20087;-46
2023/05/07 02:50:13;;;;;;;5.97;3.53;;;11.30;99.90;;;;;;5129589;27;20590;-47
2023/05/07 02:52:40;;;;;;;6.35;3.30;;;11.30;99.90;;;;;;5131997;27;20051;-47
2023/05/07 02:55:07;;;;;;;4.72;3.47;;;11.30;99.90;;;;;;5151386;27;20043;-46
2023/05/07 02:57:34;;;;;;;4.40;3.38;;;11.30;99.90;;;;;;5114672;27;20046;-47
2023/05/07 03:00:13;;;;;;;7.80;3.85;;;11.30;99.90;;;;;;5133756;22;20058;-45
2023/05/07 03:02:46;;;;;;;6.68;3.53;;;11.30;99.90;;;;;;5093528;28;20040;-45
2023/05/07 03:05:14;;;;;;;6.53;3.70;;;11.30;99.90;;;;;;5082691;28;20096;-45
2023/05/07 03:07:44;;;;;;;6.82;3.83;;;11.30;99.90;;;;;;5088906;28;20040;-45
2023/05/07 03:10:12;;;;;;;7.32;3.70;;;11.30;99.90;;;;;;5089268;28;20044;-45
2023/05/07 03:12:39;;;;;;;6.95;3.60;;;11.30;99.90;;;;;;5079928;28;20150;-45
2023/05/07 03:15:07;;;;;;;;;;;11.20;99.90;;;;;;5090080;28;20046;-45
2023/05/07 03:17:33;;;;;;;6.28;3.67;;;11.20;99.90;;;;;;5106911;28;19924;-46
2023/05/07 03:20:00;;;;;;;6.72;3.60;;;11.20;99.90;;;;;;5091526;28;20500;-45
2023/05/07 03:22:29;;;;;;;6.00;4.15;;;11.20;99.90;;;;;;5077908;28;20048;-45
2023/05/07 03:24:56;;;;;;;5.28;3.78;;;11.10;99.90;;;;;;5073167;28;20048;-45
2023/05/07 03:27:22;;;;;;;7.60;4.22;;;11.20;99.90;;;;;;5063737;28;20051;-45
2023/05/07 03:29:51;;;;;;;7.47;4.28;;;11.20;99.90;;;;;;5092511;28;20126;-45
2023/05/07 03:32:19;;;;;;;7.93;4.78;;;11.20;99.90;;;;;;5103944;28;20131;-45
2023/05/07 03:34:47;;;;;;;5.63;4.28;;;11.20;99.90;;;;;;5073536;28;20704;-44
2023/05/07 03:37:14;;;;;;;9.20;4.75;;;11.10;99.90;;;;;;5079526;28;20080;-44
2023/05/07 03:39:41;;;;;;;7.63;4.47;;;11.10;99.90;;;;;;5091839;28;20131;-45
2023/05/07 03:42:09;;;;;;;16.63;5.55;;;11.10;99.90;;;;;;5089683;28;20496;-47
2023/05/07 03:44:36;;;;;;;;;;;11.10;99.90;;;;;;5090815;28;20079;-47
2023/05/07 03:47:03;;;;;;;8.43;4.63;;;11.10;99.90;;;;;;5098258;28;19920;-46
2023/05/07 03:49:30;;;;;;;7.50;4.63;;;11.10;99.90;;;;;;5079021;28;20048;-47
2023/05/07 03:51:57;;;;;;;9.52;4.97;;;11.10;99.90;;;;;;5090866;28;20101;-47
2023/05/07 03:54:24;;;;;;;8.70;5.22;;;11.10;99.90;;;;;;5091516;28;20063;-46
2023/05/07 03:56:51;;;;;;;;;;;11.10;99.90;;;;;;5095693;28;20036;-47
2023/05/07 03:59:18;;;;;;;10.70;4.75;;;11.10;99.90;;;;;;5103027;28;19924;-46
2023/05/07 04:01:46;;;;;;;8.20;4.13;;;11.10;99.90;;;;;;5087635;28;20063;-46
2023/05/07 04:04:16;;;;;;;7.88;3.65;;;11.00;99.90;;;;;;5093067;28;20048;-46
2023/05/07 04:06:43;;;;;;;5.00;3.60;;;11.00;99.90;;;;;;5090861;28;20044;-46
2023/05/07 04:09:10;;;;;;;6.75;3.70;;;11.00;99.90;;;;;;5090150;28;20116;-46
2023/05/07 04:11:39;;;;;;;6.15;3.55;;;11.10;99.90;;;;;;5072294;28;20051;-46
2023/05/07 04:14:09;;;;;;;5.70;4.00;;;11.10;99.90;;;;;;5072908;28;20062;-46
2023/05/07 04:16:36;;;;;;;10.95;3.63;;;11.10;99.90;;;;;;5076373;28;20452;-46
2023/05/07 04:19:03;;;;;;;;;;;11.00;99.90;;;;;;5087986;28;20040;-46
2023/05/07 04:21:31;;;;;;;7.57;4.40;;;11.10;99.90;;;;;;5091739;28;19919;-46
2023/05/07 04:23:58;;;;;;;9.45;3.97;;;11.10;99.90;;;;;;5091970;28;20508;-46
2023/05/07 04:26:25;;;;;;;4.40;3.67;;;11.10;99.90;;;;;;5090448;28;20418;-46
2023/05/07 04:28:51;;;;;;;6.25;3.45;;;11.20;99.90;;;;;;5090412;28;20048;-46
2023/05/07 04:31:18;;;;;;;6.38;3.38;;;11.20;99.90;;;;;;5092230;28;20510;-46
2023/05/07 04:33:50;;;;;;;7.25;3.50;;;11.10;99.90;;;;;;5088538;28;20096;-46
2023/05/07 04:36:17;;;;;;;6.93;3.28;;;11.10;99.90;;;;;;5082326;28;20431;-46
2023/05/07 04:38:56;;;;;;;9.95;3.10;;;11.20;99.90;;;;;;5087731;28;20492;-46
2023/05/07 04:41:23;;;;;;;5.22;3.25;;;11.10;99.90;;;;;;5092779;28;20131;-45
2023/05/07 04:43:51;;;;;;;4.75;3.28;;;11.10;99.90;;;;;;5086941;28;20044;-46
2023/05/07 04:46:20;;;;;;;8.65;3.45;;;11.20;99.90;;;;;;5092644;28;20039;-46
2023/05/07 04:48:49;;;;;;;5.65;3.30;;;11.30;99.90;;;;;;5090886;28;20044;-46
2023/05/07 04:51:15;;;;;;;4.15;3.00;;;11.30;99.90;;;;;;5108282;28;20047;-46
2023/05/07 04:53:43;;;;;;;6.25;3.15;;;11.40;99.90;;;;;;5091324;28;20043;-46
2023/05/07 04:56:10;;;;;;;6.82;3.80;;;11.60;99.90;;;;;;5090789;28;20044;-46
2023/05/07 04:58:40;;;;;;;3.83;3.10;;;11.60;99.90;;;;;;5078198;28;20496;-46
2023/05/07 05:01:08;;;;;;;5.65;3.67;;;11.60;99.90;;;;;;5078271;28;20093;-46
2023/05/07 05:03:36;;;;;;;6.63;3.55;;;11.60;99.90;;;;;;5080540;28;20488;-46
2023/05/07 05:06:03;;;;;;;9.32;3.17;;;11.70;99.90;;;;;;5089280;28;20043;-46
2023/05/07 05:08:33;;;;;;;6.45;4.10;;;11.80;99.90;;;;;;5081551;28;20039;-46
2023/05/07 05:11:02;;;;;;;9.18;4.05;;;11.80;99.90;;;;;;5091834;28;20170;-46
2023/05/07 05:13:30;;;;;;;6.53;4.20;;;11.80;99.90;;;;;;5093154;28;20063;-46
2023/05/07 05:15:58;;;;;;;5.90;4.43;;;11.90;99.90;;;;;;5098671;28;20443;-46
2023/05/07 05:18:26;;;;;;;6.88;4.50;;;11.90;99.90;;;;;;5079952;28;20052;-46
2023/05/07 05:20:53;;;;;;;7.07;4.45;;;12.00;99.90;;;;;;5089749;28;20036;-46
2023/05/07 05:23:20;;;;;;;4.90;3.63;;;12.00;99.90;;;;;;5084583;28;20035;-47
2023/05/07 05:25:47;;;;;;;9.80;4.55;;;12.00;99.90;;;;;;5100963;28;20043;-46
2023/05/07 05:28:14;;;;;;;;;;;12.10;99.90;;;;;;5088958;28;20048;-46
2023/05/07 05:30:41;;;;;;;11.55;4.38;;;12.20;99.90;;;;;;5088506;28;19920;-46
2023/05/07 05:33:08;;;;;;;8.95;3.95;;;12.20;99.90;;;;;;5071752;28;20504;-46
2023/05/07 05:35:35;;;;;;;7.25;4.50;;;12.30;99.90;;;;;;5079863;28;20513;-46
2023/05/07 05:38:04;;;;;;;6.80;4.97;;;12.30;99.90;;;;;;5091582;28;20462;-46
2023/05/07 05:40:33;;;;;;;6.63;4.13;;;12.40;99.90;;;;;;5070364;28;20515;-47
2023/05/07 05:43:00;;;;;;;7.03;3.60;;;12.50;99.90;;;;;;5098792;28;20404;-46
2023/05/07 05:45:27;;;;;;;4.78;3.85;;;12.50;99.90;;;;;;5088357;28;20512;-47
2023/05/07 05:47:56;;;;;;;5.40;3.55;;;12.60;99.90;;;;;;5088654;28;20101;-46
2023/05/07 05:50:23;;;;;;;4.97;3.88;;;12.60;99.90;;;;;;5088670;28;20139;-46
2023/05/07 05:52:51;;;;;;;6.47;3.60;;;12.60;99.90;;;;;;5075081;28;20439;-46
2023/05/07 05:55:20;;;;;;;9.70;3.40;;;12.70;99.90;;;;;;5075499;28;20040;-47
2023/05/07 05:57:47;;;;;;;3.78;3.08;;;12.70;99.90;;;;;;5092237;28;20046;-46
2023/05/07 06:00:15;;;;;;;9.90;3.50;;;12.80;99.90;;;;;;5112061;28;20031;-47
2023/05/07 06:02:45;;;;;;;4.90;3.50;;;12.90;99.90;;;;;;5094185;28;20119;-46
2023/05/07 06:05:18;;;;;;;5.85;3.28;;;13.00;99.90;;;;;;5081415;28;20068;-46
2023/05/07 06:07:47;;;;;;;7.28;3.70;;;13.00;99.90;;;;;;5087382;28;20097;-46
2023/05/07 06:10:14;;;;;;;6.30;3.72;;;13.70;99.90;;;;;;5081977;28;20040;-46
2023/05/07 06:12:41;;;;;;;5.00;3.53;;;13.20;99.90;;;;;;5075246;28;20048;-46
2023/05/07 06:15:09;;;;;;;12.68;3.72;;;13.10;99.90;;;;;;5078317;28;20054;-45
2023/05/07 06:17:36;;;;;;;5.60;4.00;;;13.00;99.90;;;;;;5094680;28;20051;-46
2023/05/07 06:20:03;;;;;;;5.75;3.38;;;13.10;99.90;;;;;;5097333;28;20532;-46
2023/05/07 06:22:30;;;;;;;9.52;3.85;;;13.20;99.90;;;;;;5075206;28;20051;-47
2023/05/07 06:24:56;;;;;;;6.38;3.65;;;13.40;99.90;;;;;;5092197;28;20063;-46
2023/05/07 06:27:24;;;;;;;6.63;3.65;;;13.50;99.90;;;;;;5080448;28;20048;-46
2023/05/07 06:29:51;;;;;;;4.10;3.50;;;13.60;99.90;;;;;;5106817;28;20166;-46
2023/05/07 06:32:18;;;;;;;5.25;3.75;;;13.70;99.90;;;;;;5113520;28;20538;-46
2023/05/07 06:34:45;;;;;;;9.02;3.95;;;13.70;99.90;;;;;;5082017;28;20416;-46
2023/05/07 06:37:14;;;;;;;6.35;3.13;;;13.90;99.90;;;;;;5103285;28;20385;-47
2023/05/07 06:40:07;;;;;;;4.45;3.20;;;14.00;99.90;;;;;;5105729;28;20199;-46
2023/05/07 06:42:37;;;;;;;6.65;3.35;;;14.10;99.90;;;;;;5089659;28;20427;-47
2023/05/07 06:45:23;;;;;;;8.63;3.60;;;14.30;99.90;;;;;;5112828;28;20062;-47
2023/05/07 06:47:51;;;;;;;3.63;3.05;;;14.50;99.90;;;;;;5094837;28;20059;-47
2023/05/07 06:50:18;;;;;;;5.22;2.95;;;14.60;99.90;;;;;;5101529;28;20058;-46
2023/05/07 06:52:45;;;;;;;;;;;14.80;99.90;;;;;;5091802;28;20142;-46
2023/05/07 06:55:12;;;;;;;4.45;2.80;;;14.90;99.90;;;;;;5098517;28;19935;-46
2023/05/07 06:57:39;;;;;;;4.03;2.67;;;15.00;99.90;;;;;;5073937;28;20650;-46
2023/05/07 07:00:08;;;;;;;4.60;2.70;;;15.20;99.90;;;;;;5088764;28;20044;-46
2023/05/07 07:02:44;;;;;;;3.78;2.63;;;15.20;99.90;;;;;;5102793;28;20059;-46
2023/05/07 07:05:12;;;;;;;4.35;2.53;;;15.20;99.90;;;;;;5108222;28;20101;-46
2023/05/07 07:07:39;;;;;;;6.40;2.78;;;15.30;99.90;;;;;;5108345;28;20108;-46
2023/05/07 07:10:07;;;;;;;3.60;2.80;;;15.40;99.90;;;;;;5081684;28;20499;-46
2023/05/07 07:12:34;;;;;;;4.38;3.10;;;15.50;99.90;;;;;;5086372;28;20048;-47
2023/05/07 07:15:02;;;;;;;3.78;2.88;;;15.60;99.90;;;;;;5097306;28;20040;-47
2023/05/07 07:17:29;;;;;;;;;;;15.70;99.90;;;;;;5092378;28;20086;-47
2023/05/07 07:19:56;;;;;;;3.85;2.97;;;15.70;99.90;;;;;;5092965;28;20575;-46
2023/05/07 07:22:22;;;;;;;8.25;3.00;;;15.70;99.90;;;;;;5095978;28;20093;-46
2023/05/07 07:24:50;;;;;;;7.20;2.72;;;15.90;99.90;;;;;;5097966;28;20070;-46
2023/05/07 07:27:17;;;;;;;3.83;2.70;;;16.00;99.90;;;;;;5085758;28;20043;-46
2023/05/07 07:29:44;;;;;;;5.28;2.63;;;16.00;99.90;;;;;;5090863;28;20043;-46
2023/05/07 07:32:11;;;;;;;4.43;2.58;;;16.10;99.90;;;;;;5107297;28;20043;-47
2023/05/07 07:34:39;;;;;;;4.78;2.47;;;16.00;99.90;;;;;;5104881;28;20257;-46
2023/05/07 07:37:06;;;;;;;4.72;2.50;;;16.10;99.90;;;;;;5107082;28;20843;-46
2023/05/07 07:39:37;;;;;;;5.50;2.50;;;16.20;99.90;;;;;;5090001;28;20501;-46
2023/05/07 07:42:05;;;;;;;7.50;2.58;;;16.40;99.90;;;;;;5077719;28;20048;-46
2023/05/07 07:44:32;;;;;;;;;;;16.70;99.90;;;;;;5072903;28;20044;-46
2023/05/07 07:47:04;;;;;;;5.70;2.80;;;16.90;99.90;;;;;;5099541;28;19972;-47
2023/05/07 07:49:32;;;;;;;2.78;2.00;;;17.10;99.90;;;;;;5093313;28;20043;-46
2023/05/07 07:52:03;;;;;;;2.42;2.10;;;17.10;99.90;;;;;;5090637;28;20051;-46
2023/05/07 07:54:31;;;;;;;4.68;2.30;;;17.10;99.90;;;;;;5090151;28;20051;-47
2023/05/07 07:56:58;;;;;;;5.68;2.78;;;17.30;99.90;;;;;;5091014;28;20130;-46
2023/05/07 07:59:26;;;;;;;4.53;2.50;;;17.40;99.90;;;;;;5072646;28;20048;-46
2023/05/07 08:01:55;;;;;;;2.70;2.10;;;17.40;99.90;;;;;;5073643;28;20064;-46
2023/05/07 08:04:23;;;;;;;2.45;1.90;;;17.50;99.90;;;;;;5073293;28;20459;-47
2023/05/07 08:06:51;;;;;;;4.03;2.45;;;17.60;99.90;;;;;;5103693;28;20044;-46
2023/05/07 08:09:18;;;;;;;3.05;1.67;;;17.80;99.90;;;;;;5108926;28;20048;-46
2023/05/07 08:11:46;;;;;;;6.60;2.47;;;18.10;99.90;;;;;;5088500;28;20252;-46
2023/05/07 08:14:15;;;;;;;4.10;2.13;;;18.10;99.90;;;;;;5092476;28;20051;-46
2023/05/07 08:16:45;;;;;;;4.82;2.13;;;18.10;99.90;;;;;;5109843;28;20042;-46
2023/05/07 08:19:12;;;;;;;7.30;2.03;;;18.30;99.90;;;;;;5105588;28;20129;-46
2023/05/07 08:21:39;;;;;;;;;;;18.40;99.90;;;;;;5082835;28;20135;-47
2023/05/07 08:24:08;;;;;;;2.30;2.10;;;18.50;99.90;;;;;;5072478;28;19920;-46
2023/05/07 08:26:35;;;;;;;3.28;2.15;;;18.60;99.90;;;;;;5090261;28;20119;-46
2023/05/07 08:29:02;;;;;;;5.97;1.90;;;18.60;99.90;;;;;;5072119;28;20048;-46
2023/05/07 08:31:29;;;;;;;4.85;2.08;;;18.80;99.90;;;;;;5083358;28;20040;-46
2023/05/07 08:33:57;;;;;;;3.60;2.20;;;19.00;99.90;;;;;;5082621;28;20066;-47
2023/05/07 08:36:25;;;;;;;4.30;2.03;;;19.20;99.90;;;;;;5072589;28;20118;-46
2023/05/07 08:38:52;;;;;;;4.80;2.10;;;19.40;99.90;;;;;;5097035;28;20510;-46
2023/05/07 08:41:20;;;;;;;2.28;1.60;;;19.60;99.90;;;;;;5096356;28;20050;-46
2023/05/07 08:43:50;;;;;;;4.68;2.13;;;19.70;99.90;;;;;;5087576;28;20044;-46
2023/05/07 08:46:21;;;;;;;3.15;1.95;;;19.90;99.90;;;;;;5109569;28;20047;-46
2023/05/07 08:48:52;;;;;;;4.47;1.90;;;19.90;99.90;;;;;;5086333;28;20097;-46
2023/05/07 08:51:20;;;;;;;2.83;2.30;;;20.00;99.90;;;;;;5075069;28;20063;-46
2023/05/07 08:53:49;;;;;;;5.05;2.25;;;19.90;99.90;;;;;;5083812;28;20035;-46
2023/05/07 08:56:22;;;;;;;4.32;2.58;;;19.90;99.90;;;;;;5081064;28;20040;-47
2023/05/07 08:58:51;;;;;;;4.40;2.70;;;20.10;99.90;;;;;;5077922;28;20510;-46
2023/05/07 09:01:18;;;;;;;5.28;2.53;;;20.30;99.90;;;;;;5080575;22;20080;-47
2023/05/07 09:03:51;;;;;;;3.67;2.40;;;20.60;99.90;;;;;;5044469;28;20049;-47
2023/05/07 09:06:18;;;;;;;3.17;1.92;;;20.80;99.90;;;;;;5048672;28;20049;-46
2023/05/07 09:08:53;;;;;;;2.00;1.60;;;21.00;99.90;;;;;;5046205;28;20037;-47
2023/05/07 09:11:24;;;;;;;2.42;2.17;;;20.90;99.90;;;;;;5047692;28;20053;-46
2023/05/07 09:13:55;;;;;;;3.33;1.92;;;21.00;99.90;;;;;;5040503;28;20120;-48
2023/05/07 09:16:25;;;;;;;5.43;1.80;;;21.10;99.90;;;;;;5010236;28;20511;-48
2023/05/07 09:18:53;;;;;;;3.92;2.53;;;21.20;99.90;;;;;;5030736;28;20042;-49
2023/05/07 09:21:22;;;;;;;3.08;2.20;;;21.40;99.90;;;;;;5048322;28;20041;-48
2023/05/07 09:23:53;;;;;;;4.95;2.40;;;21.60;99.90;;;;;;5032608;28;20053;-47
2023/05/07 09:26:24;;;;;;;7.13;2.30;;;21.70;99.90;;;;;;5031117;28;20056;-48
2023/05/07 09:28:51;;;;;;;6.15;2.30;;;21.70;99.90;;;;;;5028171;28;20085;-47
2023/05/07 09:31:19;;;;;;;2.38;2.17;;;21.60;99.90;;;;;;5041042;28;20056;-47
2023/05/07 09:33:48;;;;;;;4.20;2.13;;;21.70;99.90;;;;;;5032158;28;20452;-46
2023/05/07 09:36:16;;;;;;;7.30;2.20;;;21.60;99.90;;;;;;5048219;28;20045;-46
2023/05/07 09:38:45;;;;;;;3.38;2.20;;;21.60;99.90;;;;;;5030166;28;20047;-48
2023/05/07 09:41:12;;;;;;;3.30;2.00;;;21.60;99.90;;;;;;5051686;28;21622;-47
2023/05/07 09:43:54;;;;;;;4.05;2.00;;;21.70;99.90;;;;;;5032088;28;20045;-48
2023/05/07 09:46:31;;;;;;;3.00;2.10;;;21.80;99.90;;;;;;5028042;28;20068;-48
2023/05/07 09:49:02;;;;;;;6.65;2.60;;;21.90;99.90;;;;;;5033326;28;20487;-48
2023/05/07 09:51:39;;;;;;;2.67;1.95;;;22.00;99.90;;;;;;5031305;28;20136;-47
2023/05/07 09:54:07;;;;;;;2.15;1.90;;;22.10;99.90;;;;;;5042842;28;20603;-46
2023/05/07 09:56:41;;;;;;;2.50;2.08;;;22.10;99.90;;;;;;5035494;28;20041;-47
2023/05/07 09:59:13;;;;;;;3.97;1.70;;;22.30;99.90;;;;;;5011726;28;20044;-48
2023/05/07 10:01:42;;;;;;;2.38;1.90;;;22.50;99.90;;;;;;5039116;28;20417;-46
2023/05/07 10:04:10;;;;;;;2.45;2.08;;;22.50;99.90;;;;;;5048286;28;20128;-47
2023/05/07 10:06:38;;;;;;;6.22;2.15;;;22.30;99.90;;;;;;5040175;28;20417;-48
2023/05/07 10:09:06;;;;;;;3.47;2.25;;;22.20;99.90;;;;;;5052450;28;20068;-46
2023/05/07 10:11:37;;;;;;;2.47;1.98;;;22.00;99.90;;;;;;5040259;28;20052;-46
2023/05/07 10:14:07;;;;;;;2.10;1.90;;;21.90;99.90;;;;;;5046659;28;20069;-47
2023/05/07 10:16:36;;;;;;;3.25;2.38;;;21.70;99.90;;;;;;5036249;28;20414;-46
2023/05/07 10:19:11;;;;;;;5.43;2.50;;;21.50;99.90;;;;;;5022515;28;20065;-46
2023/05/07 10:21:53;;;;;;;3.78;2.30;;;21.40;99.90;;;;;;5039694;28;20132;-48
2023/05/07 10:24:26;;;;;;;2.50;2.10;;;21.20;99.90;;;;;;5028394;28;20514;-46
2023/05/07 10:26:55;;;;;;;2.40;2.20;;;21.10;99.90;;;;;;5018736;28;20487;-47
2023/05/07 10:29:44;;;;;;;3.92;2.80;;;21.00;99.90;;;;;;5020472;28;20045;-48
2023/05/07 10:32:32;;;;;;;3.47;2.47;;;20.90;99.90;;;;;;5027054;28;20041;-46
2023/05/07 10:35:03;;;;;;;3.38;3.08;;;20.80;99.90;;;;;;5038491;28;20042;-46
2023/05/07 10:37:30;;;;;;;5.45;3.10;;;20.60;99.90;;;;;;5025621;28;20037;-48
2023/05/07 10:39:57;;;;;;;4.35;3.20;;;20.60;99.90;;;;;;5028462;28;20045;-50
2023/05/07 10:42:26;;;;;;;7.75;3.22;;;20.60;99.90;;;;;;5041883;28;20033;-47
2023/05/07 10:44:54;;;;;;;12.73;2.47;;;20.50;99.90;;;;;;5041314;28;20065;-47
2023/05/07 10:47:26;;;;;;;2.90;2.70;;;20.40;99.90;;;;;;5039071;28;20045;-48
2023/05/07 10:50:05;;;;;;;4.32;2.65;;;20.40;99.90;;;;;;5038612;28;20092;-46
2023/05/07 10:52:37;;;;;;;3.25;2.95;;;20.40;99.90;;;;;;5047752;28;20041;-47
2023/05/07 10:55:17;;;;;;;4.05;3.03;;;20.40;99.90;;;;;;5038600;28;20092;-46
2023/05/07 10:57:51;;;;;;;3.30;2.80;;;20.40;99.90;;;;;;5029405;28;20042;-49
2023/05/07 11:00:41;;;;;;;5.72;2.75;;;20.40;99.90;;;;;;5039335;28;20137;-48
2023/05/07 11:03:14;;;;;;;5.25;3.00;;;20.50;99.90;;;;;;5025309;28;20548;-47
2023/05/07 11:06:10;;;;;;;4.28;2.70;;;20.40;99.90;;;;;;5037377;28;20051;-47
2023/05/07 11:08:58;;;;;;;3.92;2.90;;;20.00;99.90;;;;;;5013062;28;20157;-47
2023/05/07 11:11:51;;;;;;;8.52;2.42;;;19.80;99.90;;;;;;5026180;28;20056;-49
2023/05/07 11:14:45;;;;;;;5.70;2.70;;;19.60;99.90;;;;;;5032514;28;20095;-49
2023/05/07 11:17:16;;;;;;;3.95;2.50;;;19.40;99.90;;;;;;5030134;28;20128;-48
2023/05/07 11:19:54;;;;;;;11.30;3.05;;;19.10;99.90;;;;;;5037417;28;20056;-50
2023/05/07 11:22:47;;;;;;;5.53;3.00;;;18.70;99.90;;;;;;5018464;28;20535;-50
2023/05/07 11:25:21;;;;;;;4.20;2.88;;;18.80;99.90;;;;;;5011547;28;20052;-49
2023/05/07 11:28:10;;;;;;;4.72;2.70;;;18.80;99.90;;;;;;5046963;28;20422;-51
2023/05/07 11:30:42;;;;;;;4.80;2.08;;;18.70;99.90;;;;;;5049827;28;20045;-47
2023/05/07 11:33:12;;;;;;;3.63;2.28;;;18.60;99.90;;;;;;5043781;28;20050;-47
2023/05/07 11:35:42;;;;;;;3.50;2.30;;;18.80;99.90;;;;;;5041742;28;20042;-50
2023/05/07 11:38:12;;;;;;;8.80;1.88;;;18.60;99.90;;;;;;5029323;28;20073;-49
2023/05/07 11:40:51;;;;;;;3.65;2.15;;;18.70;99.90;;;;;;5044569;28;20458;-52
2023/05/07 11:43:19;;;;;;;4.13;2.20;;;18.60;99.90;;;;;;5020189;28;20503;-48
2023/05/07 11:45:46;;;;;;;6.57;2.97;;;18.40;99.90;;;;;;5028847;28;20064;-49
2023/05/07 11:48:14;;;;;;;4.00;1.80;;;18.30;99.90;;;;;;5018528;28;20037;-49
2023/05/07 11:51:05;;;;;;;4.20;1.80;;;18.20;99.90;;;;;;5015770;28;20050;-48
2023/05/07 11:53:38;;;;;;;7.65;2.20;;;18.00;99.90;;;;;;5019907;28;20568;-51
2023/05/07 11:56:08;;;;;;;5.00;1.77;;;17.80;99.90;;;;;;5029804;28;20100;-49
2023/05/07 11:58:36;;;;;;;9.57;2.55;;;17.80;99.90;;;;;;5019543;28;20049;-47
2023/05/07 12:01:02;;;;;;;;;;;17.70;99.90;;;;;;5020966;28;20049;-50
2023/05/07 12:03:29;;;;;;;5.60;2.13;;;17.60;99.90;;;;;;5025978;28;19927;-48
2023/05/07 12:06:01;;;;;;;4.43;1.95;;;17.70;99.90;;;;;;5020976;28;20046;-50
2023/05/07 12:08:28;;;;;;;6.03;1.92;;;17.60;99.90;;;;;;5030820;28;20052;-47
2023/05/07 12:10:55;;;;;;;4.03;1.88;;;17.60;99.90;;;;;;5027736;28;20042;-49
2023/05/07 12:13:25;;;;;;;3.90;1.67;;;17.50;99.90;;;;;;5051353;28;20598;-48
2023/05/07 12:15:56;;;;;;;3.45;1.90;;;17.60;99.90;;;;;;5035840;28;20554;-48
2023/05/07 12:18:23;;;;;;;5.10;1.85;;;17.50;99.90;;;;;;5024699;28;20457;-47
2023/05/07 12:20:50;;;;;;;4.95;2.38;;;17.50;99.90;;;;;;5040079;28;20046;-49
2023/05/07 12:23:17;;;;;;;;;;;17.30;99.90;;;;;;5035115;28;20048;-47
2023/05/07 12:25:47;;;;;;;6.07;2.70;;;17.50;99.90;;;;;;5032489;28;19921;-47
2023/05/07 12:28:15;;;;;;;4.35;2.72;;;17.70;99.90;;;;;;5011018;28;20057;-48
2023/05/07 12:30:44;;;;;;;4.00;2.55;;;18.00;99.90;;;;;;5016557;28;20493;-47
2023/05/07 12:33:11;;;;;;;4.43;2.00;;;18.20;99.90;;;;;;5021341;28;20559;-48
2023/05/07 12:35:40;;;;;;;3.33;2.30;;;18.30;99.90;;;;;;5034979;28;20048;-47
2023/05/07 12:38:12;;;;;;;2.58;2.22;;;17.90;99.90;;;;;;5050687;28;20040;-48
2023/05/07 12:40:41;;;;;;;3.65;2.30;;;17.90;99.90;;;;;;5023926;28;20045;-51
2023/05/07 12:43:24;;;;;;;4.40;2.35;;;17.70;99.90;;;;;;5021449;28;20595;-50
2023/05/07 12:45:55;;;;;;;4.80;2.00;;;17.90;99.90;;;;;;5026852;28;20148;-47
2023/05/07 12:48:23;;;;;;;8.43;2.10;;;17.80;99.90;;;;;;5041128;28;20123;-46
2023/05/07 12:50:50;;;;;;;3.90;2.28;;;17.80;99.90;;;;;;5046744;28;20095;-46
2023/05/07 12:53:21;;;;;;;3.88;2.15;;;17.90;99.90;;;;;;5045529;28;20048;-47
2023/05/07 12:55:50;;;;;;;2.95;2.45;;;17.80;99.90;;;;;;5044350;28;20072;-51
2023/05/07 12:58:20;;;;;;;5.63;1.90;;;17.80;99.90;;;;;;5049233;28;20049;-47
2023/05/07 13:00:48;;;;;;;5.93;2.13;;;17.80;99.90;;;;;;5014770;28;20045;-51
2023/05/07 13:03:30;;;;;;;6.82;2.17;;;18.10;99.90;;;;;;5041588;28;20045;-48